Terminal Aerodrome Forecast
Issued by NWS

Home | Current Version | Previous Version | Text Only | Print | Product List | Glossary On
Versions: 1 2 3 4 5 6 7 8 9 10 11 12 13
000
FTUS45 KTWC 292336
TAFOLS
TAF
KOLS 292336Z 3000/3024 33012KT P6SM FEW250
     FM300200 01006KT P6SM SCT250
     FM300500 VRB03KT P6SM SKC
     FM301600 19010KT P6SM SKC
     FM301900 22017G27KT P6SM SKC=

USA.gov is the U.S. government's official web portal to all federal, state and local government web resources and services.